Time;durP1;ratioP1;P1;durP2;ratioP2;P2;SDS_P1;SDS_P2;PMS_P1;PMS_P2;Temp;Humidity;BMP_temperature;BMP_pressure;BME280_temperature;BME280_humidity;BME280_pressure;Samples;Min_cycle;Max_cycle;Signal;HPM_P1;HPM_P2
2022/06/08 00:02:18;;;;;;;8.40;3.10;;;;;;;;;;4449546;32;20246;-57
2022/06/08 00:04:43;;;;;;;8.52;3.00;;;;;;;;;;4449194;32;20240;-58
2022/06/08 00:07:10;;;;;;;3.72;3.08;;;;;;;;;;4449618;32;20394;-58
2022/06/08 00:09:35;;;;;;;2.90;2.60;;;;;;;;;;4448480;32;20304;-57
2022/06/08 00:12:03;;;;;;;3.47;2.50;;;;;;;;;;4449333;32;20291;-57
2022/06/08 00:14:29;;;;;;;3.78;2.58;;;;;;;;;;4449074;32;20268;-57
2022/06/08 00:16:54;;;;;;;4.45;2.65;;;;;;;;;;4449241;32;20732;-58
2022/06/08 00:19:20;;;;;;;6.97;2.40;;;;;;;;;;4448454;32;20334;-58
2022/06/08 00:21:45;;;;;;;4.32;2.87;;;;;;;;;;4447624;32;20695;-58
2022/06/08 00:24:10;;;;;;;3.33;2.50;;;;;;;;;;4447901;32;20335;-57
2022/06/08 00:26:36;;;;;;;5.00;2.60;;;;;;;;;;4448285;32;20236;-57
2022/06/08 00:29:03;;;;;;;3.97;2.58;;;;;;;;;;4448980;32;20307;-59
2022/06/08 00:31:29;;;;;;;9.27;2.92;;;;;;;;;;4449234;32;20322;-57
2022/06/08 00:33:54;;;;;;;10.02;2.65;;;;;;;;;;4449178;32;20263;-58
2022/06/08 00:36:20;;;;;;;4.15;2.75;;;;;;;;;;4447878;32;20286;-57
2022/06/08 00:38:45;;;;;;;3.62;2.45;;;;;;;;;;4449340;32;20299;-58
2022/06/08 00:41:29;;;;;;;3.53;2.70;;;;;;;;;;4448139;32;20255;-57
2022/06/08 00:43:56;;;;;;;3.17;2.58;;;;;;;;;;4449365;32;20596;-58
2022/06/08 00:46:22;;;;;;;5.03;2.95;;;;;;;;;;4448731;32;20303;-57
2022/06/08 00:48:54;;;;;;;3.22;2.60;;;;;;;;;;4447745;32;20446;-58
2022/06/08 00:51:20;;;;;;;6.57;2.95;;;;;;;;;;4449707;32;20260;-57
2022/06/08 00:53:54;;;;;;;4.75;2.78;;;;;;;;;;4464440;32;20271;-57
2022/06/08 00:56:25;;;;;;;8.75;2.87;;;;;;;;;;4464536;32;20315;-57
2022/06/08 00:58:51;;;;;;;4.93;3.25;;;;;;;;;;4463965;32;20196;-57
2022/06/08 01:01:16;;;;;;;3.90;2.97;;;;;;;;;;4448789;32;20296;-57
2022/06/08 01:03:43;;;;;;;5.05;3.72;;;;;;;;;;4448855;32;20267;-57
2022/06/08 01:06:24;;;;;;;3.78;2.30;;;;;;;;;;4448453;32;21035;-57
2022/06/08 01:08:53;;;;;;;6.03;3.20;;;;;;;;;;4456855;32;20304;-57
2022/06/08 01:11:33;;;;;;;3.87;2.62;;;;;;;;;;4464413;32;20225;-57
2022/06/08 01:14:03;;;;;;;11.23;3.78;;;;;;;;;;4461959;32;20222;-57
2022/06/08 01:16:31;;;;;;;5.68;3.22;;;;;;;;;;4448554;32;20318;-57
2022/06/08 01:18:56;;;;;;;5.15;2.90;;;;;;;;;;4448560;32;20208;-57
2022/06/08 01:21:22;;;;;;;3.10;2.65;;;;;;;;;;4448297;32;20268;-57
2022/06/08 01:23:53;;;;;;;6.82;2.90;;;;;;;;;;4448631;32;20671;-57
2022/06/08 01:26:50;;;;;;;4.82;2.65;;;;;;;;;;4447316;32;20680;-57
2022/06/08 01:29:34;;;;;;;2.97;2.25;;;;;;;;;;4447434;32;20262;-57
2022/06/08 01:32:06;;;;;;;6.30;3.05;;;;;;;;;;4448937;32;20254;-57
2022/06/08 01:34:39;;;;;;;10.57;3.03;;;;;;;;;;4448413;32;20552;-57
2022/06/08 01:37:28;;;;;;;4.22;2.95;;;;;;;;;;4448806;32;20231;-58
2022/06/08 01:39:53;;;;;;;3.80;2.37;;;;;;;;;;4451718;32;20192;-57
2022/06/08 01:43:03;;;;;;;7.35;3.10;;;;;;;;;;4451682;32;20274;-57
2022/06/08 01:45:47;;;;;;;5.55;3.22;;;;;;;;;;4449010;32;20228;-57
2022/06/08 01:48:18;;;;;;;3.65;2.35;;;;;;;;;;4451824;32;20279;-57
2022/06/08 01:51:14;;;;;;;4.00;2.95;;;;;;;;;;4449835;32;20282;-57
2022/06/08 01:54:02;;;;;;;5.22;3.22;;;;;;;;;;4450252;32;20232;-57
2022/06/08 01:56:58;;;;;;;3.80;2.60;;;;;;;;;;4452129;32;20256;-57
2022/06/08 01:59:26;;;;;;;7.05;2.87;;;;;;;;;;4451695;32;20272;-57
2022/06/08 02:02:17;;;;;;;7.10;2.80;;;;;;;;;;4451353;32;20240;-57
2022/06/08 02:04:57;;;;;;;3.28;2.58;;;;;;;;;;4451410;32;20227;-57
2022/06/08 02:07:38;;;;;;;3.83;2.92;;;;;;;;;;4451672;32;20238;-57
2022/06/08 02:10:19;;;;;;;10.48;2.80;;;;;;;;;;4452038;32;20314;-57
2022/06/08 02:12:58;;;;;;;3.87;2.58;;;;;;;;;;4451879;32;20271;-57
2022/06/08 02:15:48;;;;;;;7.65;2.97;;;;;;;;;;4451088;32;20217;-56
2022/06/08 02:18:27;;;;;;;16.73;3.62;;;;;;;;;;4450761;32;20561;-56
2022/06/08 02:21:06;;;;;;;3.37;2.97;;;;;;;;;;4450615;32;20624;-57
2022/06/08 02:24:01;;;;;;;3.75;2.70;;;;;;;;;;4449862;32;20280;-57
2022/06/08 02:26:41;;;;;;;15.07;3.50;;;;;;;;;;4430540;32;20585;-57
2022/06/08 02:29:22;;;;;;;4.82;3.30;;;;;;;;;;4450992;32;20252;-57
2022/06/08 02:31:53;;;;;;;4.45;3.75;;;;;;;;;;4451045;32;20216;-57
2022/06/08 02:34:42;;;;;;;4.90;3.22;;;;;;;;;;4451155;32;20201;-57
2022/06/08 02:37:21;;;;;;;5.05;3.50;;;;;;;;;;4450743;32;20232;-58
2022/06/08 02:39:51;;;;;;;3.83;2.95;;;;;;;;;;4451368;32;20204;-58
2022/06/08 02:42:23;;;;;;;5.55;3.20;;;;;;;;;;4450053;32;20311;-57
2022/06/08 02:44:53;;;;;;;5.37;3.45;;;;;;;;;;4451019;32;20230;-58
2022/06/08 02:47:39;;;;;;;4.40;3.15;;;;;;;;;;4451034;32;20221;-58
2022/06/08 02:50:10;;;;;;;4.07;2.70;;;;;;;;;;4449411;32;20209;-58
2022/06/08 02:52:36;;;;;;;3.47;3.00;;;;;;;;;;4450657;32;20454;-57
2022/06/08 02:55:15;;;;;;;4.10;3.60;;;;;;;;;;4452062;32;20684;-57
2022/06/08 02:57:56;;;;;;;4.82;3.28;;;;;;;;;;4466822;32;20299;-56
2022/06/08 03:00:42;;;;;;;5.50;2.60;;;;;;;;;;4466523;32;20271;-56
2022/06/08 03:03:15;;;;;;;2.80;2.58;;;;;;;;;;4466643;32;20227;-57
2022/06/08 03:05:52;;;;;;;6.22;3.22;;;;;;;;;;4466059;32;20188;-57
2022/06/08 03:08:24;;;;;;;2.92;2.45;;;;;;;;;;4461712;32;20280;-57
2022/06/08 03:10:52;;;;;;;5.32;2.62;;;;;;;;;;4450721;32;20227;-57
2022/06/08 03:13:39;;;;;;;3.03;2.70;;;;;;;;;;4450870;32;20208;-58
2022/06/08 03:16:08;;;;;;;5.03;2.85;;;;;;;;;;4450135;32;20212;-58
2022/06/08 03:18:34;;;;;;;7.78;3.17;;;;;;;;;;4449962;32;20566;-57
2022/06/08 03:21:02;;;;;;;4.43;2.60;;;;;;;;;;4449022;32;20347;-58
2022/06/08 03:23:28;;;;;;;6.60;3.12;;;;;;;;;;4449628;32;20228;-58
2022/06/08 03:25:54;;;;;;;5.47;2.80;;;;;;;;;;4450214;32;20204;-57
2022/06/08 03:28:20;;;;;;;4.65;3.35;;;;;;;;;;4450357;32;20461;-58
2022/06/08 03:30:46;;;;;;;4.05;2.87;;;;;;;;;;4450492;32;20208;-58
2022/06/08 03:33:12;;;;;;;4.53;3.40;;;;;;;;;;4450122;32;20303;-59
2022/06/08 03:35:39;;;;;;;5.20;2.97;;;;;;;;;;4450466;32;20272;-57
2022/06/08 03:38:04;;;;;;;15.02;3.12;;;;;;;;;;4450396;32;20255;-57
2022/06/08 03:40:30;;;;;;;13.07;3.15;;;;;;;;;;4450609;32;20220;-58
2022/06/08 03:42:56;;;;;;;5.95;3.15;;;;;;;;;;4450351;32;20235;-58
2022/06/08 03:45:22;;;;;;;4.65;2.70;;;;;;;;;;4450162;32;20682;-57
2022/06/08 03:47:51;;;;;;;4.07;2.87;;;;;;;;;;4449388;32;20263;-57
2022/06/08 03:50:25;;;;;;;4.32;2.65;;;;;;;;;;4449645;32;20222;-58
2022/06/08 03:52:55;;;;;;;7.72;2.55;;;;;;;;;;4460626;32;20231;-58
2022/06/08 03:55:22;;;;;;;12.32;3.53;;;;;;;;;;4465380;32;20295;-58
2022/06/08 03:57:50;;;;;;;10.07;2.83;;;;;;;;;;4464089;32;20254;-57
2022/06/08 04:00:18;;;;;;;4.45;2.80;;;;;;;;;;4463864;32;20644;-57
2022/06/08 04:02:46;;;;;;;11.05;2.92;;;;;;;;;;4464950;32;20659;-57
2022/06/08 04:05:12;;;;;;;12.70;3.87;;;;;;;;;;4463390;32;20283;-58
2022/06/08 04:07:38;;;;;;;8.02;3.10;;;;;;;;;;4464773;32;20636;-58
2022/06/08 04:10:04;;;;;;;7.32;3.58;;;;;;;;;;4449847;32;20220;-57
2022/06/08 04:12:30;;;;;;;4.40;3.42;;;;;;;;;;4450107;32;20293;-58
2022/06/08 04:14:55;;;;;;;10.15;3.83;;;;;;;;;;4449905;32;20271;-57
2022/06/08 04:17:21;;;;;;;8.98;3.45;;;;;;;;;;4450342;32;20299;-57
2022/06/08 04:19:49;;;;;;;6.30;3.25;;;;;;;;;;4449992;32;20267;-57
2022/06/08 04:22:18;;;;;;;6.15;3.33;;;;;;;;;;4450388;32;20544;-57
2022/06/08 04:24:45;;;;;;;7.75;4.45;;;;;;;;;;4449886;32;20551;-57
2022/06/08 04:27:11;;;;;;;6.82;4.37;;;;;;;;;;4449704;32;20476;-57
2022/06/08 04:29:38;;;;;;;9.70;4.57;;;;;;;;;;4449355;32;20298;-56
2022/06/08 04:32:09;;;;;;;4.18;3.70;;;;;;;;;;4448613;32;20309;-57
2022/06/08 04:34:37;;;;;;;4.18;3.78;;;;;;;;;;4448702;32;20223;-57
2022/06/08 04:37:02;;;;;;;6.30;3.50;;;;;;;;;;4449171;32;20296;-57
2022/06/08 04:39:28;;;;;;;5.47;4.10;;;;;;;;;;4449157;32;20750;-58
2022/06/08 04:41:54;;;;;;;22.33;4.95;;;;;;;;;;4449085;32;20322;-57
2022/06/08 04:44:21;;;;;;;10.68;4.20;;;;;;;;;;4449321;32;20338;-57
2022/06/08 04:46:46;;;;;;;9.10;4.53;;;;;;;;;;4449034;32;20295;-56
2022/06/08 04:49:12;;;;;;;18.23;4.82;;;;;;;;;;4448442;32;20498;-66
2022/06/08 04:51:37;;;;;;;12.63;5.22;;;;;;;;;;4451086;32;20572;-57
2022/06/08 04:54:03;;;;;;;9.57;4.07;;;;;;;;;;4464131;32;20299;-57
2022/06/08 04:56:28;;;;;;;15.50;3.90;;;;;;;;;;4463900;32;20317;-57
2022/06/08 04:58:54;;;;;;;5.95;4.32;;;;;;;;;;4464485;32;20272;-57
2022/06/08 05:01:20;;;;;;;8.88;4.12;;;;;;;;;;4464186;32;20688;-57
2022/06/08 05:03:46;;;;;;;10.18;3.83;;;;;;;;;;4464325;32;20247;-57
2022/06/08 05:06:11;;;;;;;9.57;3.85;;;;;;;;;;4462909;32;20299;-58
2022/06/08 05:08:37;;;;;;;10.23;4.45;;;;;;;;;;4456229;32;20752;-58
2022/06/08 05:11:05;;;;;;;6.47;4.32;;;;;;;;;;4447981;32;20208;-58
2022/06/08 05:13:32;;;;;;;10.80;4.62;;;;;;;;;;4450772;32;20630;-57
2022/06/08 05:15:57;;;;;;;10.45;4.20;;;;;;;;;;4451457;32;20252;-58
2022/06/08 05:18:23;;;;;;;10.23;4.28;;;;;;;;;;4451509;32;20306;-57
2022/06/08 05:20:50;;;;;;;8.30;4.37;;;;;;;;;;4451580;32;20207;-58
2022/06/08 05:23:23;;;;;;;6.50;4.07;;;;;;;;;;4451756;32;20327;-57
2022/06/08 05:25:48;;;;;;;5.80;4.32;;;;;;;;;;4451914;32;20298;-57
2022/06/08 05:28:14;;;;;;;6.30;3.97;;;;;;;;;;4451881;32;20310;-57
2022/06/08 05:30:41;;;;;;;6.43;4.22;;;;;;;;;;4451584;32;20292;-57
2022/06/08 05:33:07;;;;;;;7.62;4.30;;;;;;;;;;4451972;32;20310;-57
2022/06/08 05:35:32;;;;;;;7.43;4.50;;;;;;;;;;4452079;32;20625;-57
2022/06/08 05:37:58;;;;;;;5.12;4.60;;;;;;;;;;4451086;32;20267;-57
2022/06/08 05:40:25;;;;;;;4.87;4.07;;;;;;;;;;4451024;32;20205;-56
2022/06/08 05:42:51;;;;;;;9.55;4.18;;;;;;;;;;4450156;32;20316;-57
2022/06/08 05:45:21;;;;;;;7.30;4.62;;;;;;;;;;4458639;32;20247;-57
2022/06/08 05:47:47;;;;;;;6.95;4.70;;;;;;;;;;4466705;32;20621;-57
2022/06/08 05:50:12;;;;;;;11.00;4.45;;;;;;;;;;4466573;32;20228;-57
2022/06/08 05:52:38;;;;;;;9.07;4.28;;;;;;;;;;4457486;32;20319;-58
2022/06/08 05:55:04;;;;;;;6.53;4.40;;;;;;;;;;4451638;32;20692;-58
2022/06/08 05:57:30;;;;;;;8.80;4.03;;;;;;;;;;4451099;32;20254;-57
2022/06/08 05:59:55;;;;;;;8.13;3.85;;;;;;;;;;4451409;32;20263;-58
2022/06/08 06:02:21;;;;;;;9.07;3.90;;;;;;;;;;4451529;32;20330;-57
2022/06/08 06:04:46;;;;;;;7.50;3.55;;;;;;;;;;4450689;32;20625;-57
2022/06/08 06:07:13;;;;;;;10.82;5.57;;;;;;;;;;4450811;32;20580;-57
2022/06/08 06:09:40;;;;;;;6.68;4.07;;;;;;;;;;4451076;32;20213;-57
2022/06/08 06:12:06;;;;;;;8.20;4.35;;;;;;;;;;4450556;32;20606;-58
2022/06/08 06:14:32;;;;;;;9.35;4.47;;;;;;;;;;4450456;32;20388;-57
2022/06/08 06:16:58;;;;;;;15.50;3.62;;;;;;;;;;4450231;32;20346;-57
2022/06/08 06:19:24;;;;;;;12.05;4.43;;;;;;;;;;4450185;32;20316;-58
2022/06/08 06:21:50;;;;;;;6.47;3.80;;;;;;;;;;4449270;32;20759;-57
2022/06/08 06:24:16;;;;;;;5.80;4.37;;;;;;;;;;4450251;32;20272;-57
2022/06/08 06:26:42;;;;;;;5.95;4.00;;;;;;;;;;4450276;32;20304;-58
2022/06/08 06:29:07;;;;;;;4.07;3.67;;;;;;;;;;4450251;32;20624;-58
2022/06/08 06:31:47;;;;;;;5.35;3.58;;;;;;;;;;4448719;32;20244;-58
2022/06/08 06:34:15;;;;;;;4.68;3.05;;;;;;;;;;4448799;32;20324;-58
2022/06/08 06:36:41;;;;;;;7.72;3.85;;;;;;;;;;4449809;32;20256;-57
2022/06/08 06:39:07;;;;;;;4.93;3.50;;;;;;;;;;4450312;32;20767;-58
2022/06/08 06:41:33;;;;;;;6.22;3.58;;;;;;;;;;4449769;32;20224;-57
2022/06/08 06:43:59;;;;;;;4.32;3.70;;;;;;;;;;4449763;32;20593;-58
2022/06/08 06:46:25;;;;;;;4.57;3.45;;;;;;;;;;4449628;32;20228;-58
2022/06/08 06:48:50;;;;;;;11.68;3.87;;;;;;;;;;4449623;32;20322;-58
2022/06/08 06:51:16;;;;;;;4.93;3.72;;;;;;;;;;4449788;32;20228;-58
2022/06/08 06:53:41;;;;;;;7.40;5.20;;;;;;;;;;4450417;32;20286;-59
2022/06/08 06:56:08;;;;;;;3.55;3.20;;;;;;;;;;4454066;32;20307;-57
2022/06/08 06:58:34;;;;;;;4.93;3.33;;;;;;;;;;4448638;32;20224;-58
2022/06/08 07:01:00;;;;;;;3.53;3.20;;;;;;;;;;4461758;32;20281;-57
2022/06/08 07:03:26;;;;;;;3.47;2.53;;;;;;;;;;4449743;32;20319;-57
2022/06/08 07:05:51;;;;;;;5.95;3.20;;;;;;;;;;4449042;32;20735;-58
2022/06/08 07:08:18;;;;;;;7.20;3.47;;;;;;;;;;4449102;32;20238;-58
2022/06/08 07:11:32;;;;;;;5.55;3.35;;;;;;;;;;4446409;32;20272;-58
2022/06/08 07:13:29;;;;;;;8.15;3.65;;;;;;;;;;4447862;32;20278;-57
2022/06/08 07:15:54;;;;;;;4.37;3.05;;;;;;;;;;4447082;32;20248;-57
2022/06/08 07:18:19;;;;;;;6.15;3.55;;;;;;;;;;4447523;32;20303;-58
2022/06/08 07:20:45;;;;;;;8.75;4.07;;;;;;;;;;4448198;32;20231;-58
2022/06/08 07:23:11;;;;;;;12.75;3.10;;;;;;;;;;4449694;32;20320;-57
2022/06/08 07:25:37;;;;;;;3.17;2.87;;;;;;;;;;4449530;32;20213;-58
2022/06/08 07:28:02;;;;;;;7.78;3.10;;;;;;;;;;4449964;32;20266;-58
2022/06/08 07:30:27;;;;;;;4.95;3.12;;;;;;;;;;4448975;32;20213;-56
2022/06/08 07:32:53;;;;;;;6.40;4.93;;;;;;;;;;4448183;32;20216;-57
2022/06/08 07:35:19;;;;;;;3.87;3.08;;;;;;;;;;4449290;32;20601;-57
2022/06/08 07:37:44;;;;;;;5.05;3.28;;;;;;;;;;4449356;32;20224;-58
2022/06/08 07:40:10;;;;;;;4.05;2.78;;;;;;;;;;4449216;32;20237;-58
2022/06/08 07:42:37;;;;;;;3.78;2.95;;;;;;;;;;4449422;32;20258;-57
2022/06/08 07:45:05;;;;;;;14.40;3.72;;;;;;;;;;4449344;32;20299;-57
2022/06/08 07:47:30;;;;;;;5.00;2.97;;;;;;;;;;4449440;32;20274;-58
2022/06/08 07:49:56;;;;;;;4.12;2.65;;;;;;;;;;4449180;32;20688;-58
2022/06/08 07:52:22;;;;;;;3.25;2.95;;;;;;;;;;4449028;32;20260;-57
2022/06/08 07:54:48;;;;;;;4.50;2.50;;;;;;;;;;4448991;32;20348;-57
2022/06/08 07:57:20;;;;;;;3.62;2.67;;;;;;;;;;4464388;32;20224;-57
2022/06/08 07:59:47;;;;;;;5.22;3.55;;;;;;;;;;4464659;32;20377;-57
2022/06/08 08:02:14;;;;;;;4.37;3.30;;;;;;;;;;4464150;32;20259;-57
2022/06/08 08:04:40;;;;;;;7.45;3.72;;;;;;;;;;4463546;32;20223;-57
2022/06/08 08:07:06;;;;;;;5.93;3.75;;;;;;;;;;4464392;32;20215;-57
2022/06/08 08:09:33;;;;;;;4.47;3.75;;;;;;;;;;4451929;32;20595;-57
2022/06/08 08:12:00;;;;;;;7.15;4.35;;;;;;;;;;4448891;32;20302;-58
2022/06/08 08:14:26;;;;;;;5.68;3.65;;;;;;;;;;4449182;32;20298;-58
2022/06/08 08:16:52;;;;;;;6.65;4.50;;;;;;;;;;4447540;32;20307;-57
2022/06/08 08:19:20;;;;;;;31.15;4.25;;;;;;;;;;4447439;32;20251;-58
2022/06/08 08:21:46;;;;;;;6.72;4.25;;;;;;;;;;4445120;32;20264;-58
2022/06/08 08:24:13;;;;;;;14.13;4.50;;;;;;;;;;4447023;32;20240;-58
2022/06/08 08:26:39;;;;;;;9.70;4.30;;;;;;;;;;4447777;32;20228;-58
2022/06/08 08:29:05;;;;;;;8.05;3.58;;;;;;;;;;4446599;32;20358;-57
2022/06/08 08:31:32;;;;;;;5.03;4.10;;;;;;;;;;4447769;32;20371;-57
2022/06/08 08:33:59;;;;;;;7.12;4.53;;;;;;;;;;4448297;32;20291;-58
2022/06/08 08:36:24;;;;;;;10.85;5.03;;;;;;;;;;4434842;32;20595;-58
2022/06/08 08:38:50;;;;;;;10.18;5.00;;;;;;;;;;4449078;32;20372;-58
2022/06/08 08:44:07;;;;;;;7.22;4.95;;;;;;;;;;4448335;32;20281;-57
2022/06/08 08:47:05;;;;;;;8.15;4.90;;;;;;;;;;4462633;32;20307;-57
2022/06/08 08:49:33;;;;;;;8.45;4.78;;;;;;;;;;4463001;32;20215;-57
2022/06/08 08:52:01;;;;;;;11.23;4.75;;;;;;;;;;4457208;32;20679;-56
2022/06/08 08:54:29;;;;;;;8.88;5.62;;;;;;;;;;4447915;32;20636;-57
2022/06/08 08:57:04;;;;;;;10.25;5.47;;;;;;;;;;4461106;32;20307;-58
2022/06/08 08:59:31;;;;;;;10.98;6.22;;;;;;;;;;4462291;32;20255;-57
2022/06/08 09:01:57;;;;;;;13.75;6.05;;;;;;;;;;4463339;32;20320;-58
2022/06/08 09:04:33;;;;;;;10.38;5.32;;;;;;;;;;4463806;32;20317;-57
2022/06/08 09:07:19;;;;;;;15.38;5.75;;;;;;;;;;4463799;32;20250;-57
2022/06/08 09:09:45;;;;;;;13.50;5.57;;;;;;;;;;4463562;32;20271;-57
2022/06/08 09:12:18;;;;;;;7.95;5.03;;;;;;;;;;4463617;32;20256;-58
2022/06/08 09:15:02;;;;;;;10.95;6.05;;;;;;;;;;4462063;32;20233;-57
2022/06/08 09:17:37;;;;;;;6.95;5.15;;;;;;;;;;4463454;32;20227;-58
2022/06/08 09:20:31;;;;;;;10.80;5.45;;;;;;;;;;4463103;32;20200;-57
2022/06/08 09:23:02;;;;;;;8.48;5.82;;;;;;;;;;4463639;32;20272;-56
2022/06/08 09:25:35;;;;;;;11.15;6.95;;;;;;;;;;4463262;32;20352;-58
2022/06/08 09:28:02;;;;;;;10.90;6.40;;;;;;;;;;4463612;32;20228;-58
2022/06/08 09:30:45;;;;;;;8.05;5.70;;;;;;;;;;4463477;32;20216;-58
2022/06/08 09:33:23;;;;;;;6.40;5.62;;;;;;;;;;4462556;32;20761;-57
2022/06/08 09:36:01;;;;;;;6.30;5.60;;;;;;;;;;4461390;32;20683;-58
2022/06/08 09:38:32;;;;;;;6.35;5.65;;;;;;;;;;4461721;32;20275;-58
2022/06/08 09:41:07;;;;;;;5.87;5.32;;;;;;;;;;4461301;32;20223;-57
2022/06/08 09:43:44;;;;;;;7.35;5.12;;;;;;;;;;4463770;32;20208;-57
2022/06/08 09:51:25;;;;;;;5.82;5.22;;;;;;;;;;4449676;32;20385;-57
2022/06/08 09:52:02;;;;;;;9.90;5.43;;;;;;;;;;4453768;32;20653;-56
2022/06/08 09:54:27;;;;;;;8.15;5.75;;;;;;;;;;4463941;32;20299;-57
2022/06/08 09:57:28;;;;;;;7.93;5.80;;;;;;;;;;4463132;32;20239;-57
2022/06/08 10:00:27;;;;;;;7.78;5.10;;;;;;;;;;4463499;32;20250;-57
2022/06/08 10:03:00;;;;;;;7.37;5.85;;;;;;;;;;4465989;32;20323;-57
2022/06/08 10:05:44;;;;;;;12.30;5.40;;;;;;;;;;4466417;32;20200;-57
2022/06/08 10:08:19;;;;;;;7.12;5.43;;;;;;;;;;4462424;32;20737;-58
2022/06/08 10:11:34;;;;;;;9.88;5.20;;;;;;;;;;4450747;32;20258;-58
2022/06/08 10:13:57;;;;;;;11.35;5.62;;;;;;;;;;4438793;32;20232;-58
2022/06/08 10:16:26;;;;;;;11.12;5.22;;;;;;;;;;4450141;32;20530;-58
2022/06/08 10:19:00;;;;;;;11.12;4.90;;;;;;;;;;4450548;32;20288;-58
2022/06/08 10:21:39;;;;;;;8.38;5.90;;;;;;;;;;4450475;32;20256;-58
2022/06/08 10:24:17;;;;;;;6.15;5.53;;;;;;;;;;4451057;32;20259;-58
2022/06/08 10:26:57;;;;;;;6.20;5.60;;;;;;;;;;4450462;32;20224;-58
2022/06/08 10:29:46;;;;;;;6.82;5.78;;;;;;;;;;4450668;32;20209;-57
2022/06/08 10:32:20;;;;;;;7.03;5.90;;;;;;;;;;4450057;32;20445;-57
2022/06/08 10:34:52;;;;;;;18.92;6.43;;;;;;;;;;4450784;32;20517;-57
2022/06/08 10:37:28;;;;;;;7.40;5.75;;;;;;;;;;4456466;32;20254;-57
2022/06/08 10:39:54;;;;;;;7.75;5.60;;;;;;;;;;4466295;32;20417;-57
2022/06/08 10:42:41;;;;;;;7.25;6.12;;;;;;;;;;4465106;32;20686;-58
2022/06/08 10:45:26;;;;;;;9.02;6.75;;;;;;;;;;4456577;32;20710;-57
2022/06/08 10:48:15;;;;;;;6.85;6.15;;;;;;;;;;4448470;32;20268;-58
2022/06/08 10:50:48;;;;;;;6.00;5.40;;;;;;;;;;4447255;32;20212;-57
2022/06/08 10:56:36;;;;;;;6.05;5.45;;;;;;;;;;4464310;32;20274;-57
2022/06/08 10:59:07;;;;;;;8.70;6.68;;;;;;;;;;4446384;32;20774;-57
2022/06/08 11:01:54;;;;;;;6.00;5.40;;;;;;;;;;4464867;32;20702;-57
2022/06/08 11:04:29;;;;;;;6.45;5.82;;;;;;;;;;4466026;32;20538;-58
2022/06/08 11:07:01;;;;;;;7.55;5.53;;;;;;;;;;4465806;32;20295;-57
2022/06/08 11:09:33;;;;;;;6.93;5.80;;;;;;;;;;4464693;32;20208;-58
2022/06/08 11:12:04;;;;;;;8.15;6.07;;;;;;;;;;4464896;32;20292;-57
2022/06/08 11:14:31;;;;;;;8.63;6.47;;;;;;;;;;4464248;32;20307;-58
2022/06/08 11:17:02;;;;;;;12.40;7.03;;;;;;;;;;4465253;32;20327;-57
2022/06/08 11:19:31;;;;;;;11.18;6.97;;;;;;;;;;4452624;32;20499;-57
2022/06/08 11:22:00;;;;;;;7.28;6.50;;;;;;;;;;4449581;32;20522;-57
2022/06/08 11:24:34;;;;;;;10.82;7.12;;;;;;;;;;4449575;32;20234;-57
2022/06/08 11:27:14;;;;;;;9.10;5.97;;;;;;;;;;4449576;32;20221;-57
2022/06/08 11:29:50;;;;;;;12.98;6.65;;;;;;;;;;4449396;32;20204;-57
2022/06/08 11:32:34;;;;;;;9.30;7.03;;;;;;;;;;4449371;32;20215;-57
2022/06/08 11:35:27;;;;;;;8.95;7.35;;;;;;;;;;4449681;32;20335;-57
2022/06/08 11:37:58;;;;;;;12.65;6.95;;;;;;;;;;4449223;32;20296;-57
2022/06/08 11:40:33;;;;;;;12.32;6.62;;;;;;;;;;4448162;32;20251;-57
2022/06/08 11:43:01;;;;;;;10.90;7.47;;;;;;;;;;4449804;32;20638;-57
2022/06/08 11:45:55;;;;;;;8.30;6.75;;;;;;;;;;4449253;32;20319;-58
2022/06/08 11:48:29;;;;;;;11.48;7.82;;;;;;;;;;4447783;32;20654;-57
2022/06/08 11:50:58;;;;;;;9.23;7.03;;;;;;;;;;4448977;32;20199;-58
2022/06/08 11:53:27;;;;;;;7.55;6.70;;;;;;;;;;4452657;32;20704;-57
2022/06/08 11:56:08;;;;;;;9.70;6.62;;;;;;;;;;4463855;32;20208;-57
2022/06/08 11:58:35;;;;;;;8.98;5.43;;;;;;;;;;4464102;32;20270;-58
2022/06/08 12:01:10;;;;;;;10.23;6.15;;;;;;;;;;4463908;32;20237;-57
2022/06/08 12:03:41;;;;;;;9.43;6.40;;;;;;;;;;4451285;32;20226;-58
2022/06/08 12:06:13;;;;;;;7.90;6.53;;;;;;;;;;4463763;32;20279;-58
2022/06/08 12:08:42;;;;;;;10.30;6.62;;;;;;;;;;4457819;32;20243;-57
2022/06/08 12:11:13;;;;;;;9.45;6.20;;;;;;;;;;4448927;32;20212;-58
2022/06/08 12:13:39;;;;;;;13.30;7.53;;;;;;;;;;4449003;32;20244;-58
2022/06/08 12:16:36;;;;;;;8.52;6.60;;;;;;;;;;4448387;32;20242;-57
2022/06/08 12:19:15;;;;;;;8.13;7.03;;;;;;;;;;4449150;32;20324;-58
2022/06/08 12:21:46;;;;;;;8.73;6.87;;;;;;;;;;4448857;32;20782;-58
2022/06/08 12:24:11;;;;;;;9.32;7.20;;;;;;;;;;4447751;32;20426;-56
2022/06/08 12:26:56;;;;;;;7.85;6.47;;;;;;;;;;4448835;32;20243;-57
2022/06/08 12:29:34;;;;;;;6.82;6.12;;;;;;;;;;4453827;32;20233;-56
2022/06/08 12:31:59;;;;;;;10.73;6.62;;;;;;;;;;4464111;32;20208;-58
2022/06/08 12:34:35;;;;;;;13.38;6.93;;;;;;;;;;4464183;32;20617;-58
2022/06/08 12:37:26;;;;;;;7.07;6.15;;;;;;;;;;4459744;32;20338;-58
2022/06/08 12:39:56;;;;;;;7.87;6.32;;;;;;;;;;4449037;32;20353;-58
2022/06/08 12:42:30;;;;;;;7.82;7.00;;;;;;;;;;4449109;32;20495;-60
2022/06/08 12:44:58;;;;;;;6.95;6.20;;;;;;;;;;4434555;32;20228;-58
2022/06/08 12:47:29;;;;;;;8.45;6.32;;;;;;;;;;4447546;32;20672;-57
2022/06/08 12:50:07;;;;;;;13.55;6.72;;;;;;;;;;4448607;32;20239;-57
2022/06/08 12:52:36;;;;;;;9.57;6.30;;;;;;;;;;4448453;32;20232;-56
2022/06/08 12:55:03;;;;;;;6.22;5.25;;;;;;;;;;4449622;32;20298;-57
2022/06/08 12:57:31;;;;;;;6.55;5.85;;;;;;;;;;4463974;32;20358;-57
2022/06/08 13:00:00;;;;;;;11.25;6.05;;;;;;;;;;4463948;32;20323;-57
2022/06/08 13:02:35;;;;;;;10.48;6.37;;;;;;;;;;4463282;32;20337;-57
2022/06/08 13:05:04;;;;;;;6.32;5.65;;;;;;;;;;4461686;32;20581;-57
2022/06/08 13:07:32;;;;;;;9.85;6.62;;;;;;;;;;4462505;32;20227;-57
2022/06/08 13:09:58;;;;;;;6.70;6.10;;;;;;;;;;4464022;32;20592;-57
2022/06/08 13:12:27;;;;;;;7.35;6.20;;;;;;;;;;4447755;32;20706;-58
2022/06/08 13:14:53;;;;;;;6.82;5.85;;;;;;;;;;4446649;32;20255;-58
2022/06/08 13:17:20;;;;;;;9.32;7.35;;;;;;;;;;4447066;32;20641;-58
2022/06/08 13:19:46;;;;;;;7.60;5.82;;;;;;;;;;4460743;32;20588;-58
2022/06/08 13:22:12;;;;;;;8.00;6.00;;;;;;;;;;4464402;32;20280;-58
2022/06/08 13:24:38;;;;;;;10.68;6.12;;;;;;;;;;4464358;32;20258;-58
2022/06/08 13:27:10;;;;;;;21.67;7.78;;;;;;;;;;4449743;32;20224;-57
2022/06/08 13:29:36;;;;;;;14.02;6.43;;;;;;;;;;4449169;32;20244;-60
2022/06/08 13:32:01;;;;;;;16.83;7.90;;;;;;;;;;4434108;32;20315;-59
2022/06/08 13:34:27;;;;;;;10.30;7.05;;;;;;;;;;4450391;32;20299;-59
2022/06/08 13:36:56;;;;;;;15.48;6.80;;;;;;;;;;4451474;32;20236;-58
2022/06/08 13:39:31;;;;;;;13.57;5.10;;;;;;;;;;4450472;32;20287;-59
2022/06/08 13:42:04;;;;;;;11.45;5.25;;;;;;;;;;4451816;32;20294;-60
2022/06/08 13:44:39;;;;;;;10.65;3.37;;;;;;;;;;4451973;32;20204;-58
2022/06/08 13:47:28;;;;;;;5.82;2.10;;;;;;;;;;4451256;32;20221;-63
2022/06/08 13:50:11;;;;;;;10.77;3.05;;;;;;;;;;4450549;32;20232;-60
2022/06/08 13:52:38;;;;;;;3.92;2.70;;;;;;;;;;4452451;32;20219;-61
2022/06/08 13:55:23;;;;;;;10.73;4.40;;;;;;;;;;4453683;32;20653;-61
2022/06/08 13:57:53;;;;;;;11.40;4.40;;;;;;;;;;4467622;32;20299;-61
2022/06/08 14:00:20;;;;;;;12.32;4.03;;;;;;;;;;4462694;32;20692;-61
2022/06/08 14:02:51;;;;;;;12.32;4.30;;;;;;;;;;4451844;32;20296;-60
2022/06/08 14:05:23;;;;;;;6.93;3.35;;;;;;;;;;4450313;32;20302;-60
2022/06/08 14:13:29;;;;;;;5.50;3.70;;;;;;;;;;4464096;32;20350;-61
2022/06/08 14:15:58;;;;;;;11.10;5.55;;;;;;;;;;4463377;32;20224;-61
2022/06/08 14:18:27;;;;;;;10.50;6.68;;;;;;;;;;4463267;32;20235;-62
2022/06/08 14:20:53;;;;;;;5.12;3.92;;;;;;;;;;4453001;32;20224;-60
2022/06/08 14:23:20;;;;;;;7.30;4.18;;;;;;;;;;4465494;32;20564;-61
2022/06/08 14:25:48;;;;;;;7.82;4.28;;;;;;;;;;4467428;32;20390;-60
2022/06/08 14:28:15;;;;;;;10.63;3.97;;;;;;;;;;4467440;32;20309;-61
2022/06/08 14:30:43;;;;;;;9.13;3.95;;;;;;;;;;4467221;32;20200;-61
2022/06/08 14:33:19;;;;;;;10.65;3.53;;;;;;;;;;4467455;32;20291;-61
2022/06/08 14:35:48;;;;;;;14.15;4.70;;;;;;;;;;4467156;32;20200;-60
2022/06/08 14:38:18;;;;;;;8.70;3.85;;;;;;;;;;4453904;32;20258;-60
2022/06/08 14:40:45;;;;;;;7.47;4.05;;;;;;;;;;4450624;32;20235;-61
2022/06/08 14:43:11;;;;;;;8.00;4.50;;;;;;;;;;4448787;32;20260;-62
2022/06/08 14:45:39;;;;;;;9.02;4.57;;;;;;;;;;4448613;32;20250;-60
2022/06/08 14:48:15;;;;;;;9.27;3.65;;;;;;;;;;4449999;32;20629;-60
2022/06/08 14:50:44;;;;;;;7.05;4.43;;;;;;;;;;4450274;32;20205;-61
2022/06/08 14:53:11;;;;;;;8.07;4.65;;;;;;;;;;4449284;32;21119;-61
2022/06/08 14:58:21;;;;;;;7.12;4.95;;;;;;;;;;4450694;32;20278;-60
2022/06/08 15:00:47;;;;;;;15.13;5.03;;;;;;;;;;4450616;32;20275;-60
2022/06/08 15:03:19;;;;;;;11.32;4.65;;;;;;;;;;4460274;32;20295;-60
2022/06/08 15:05:45;;;;;;;5.37;4.50;;;;;;;;;;4456021;32;20541;-61
2022/06/08 15:08:11;;;;;;;9.63;4.45;;;;;;;;;;4461691;32;20779;-60
2022/06/08 15:11:58;;;;;;;6.30;4.40;;;;;;;;;;4450268;32;20628;-60
2022/06/08 15:13:24;;;;;;;10.15;4.07;;;;;;;;;;4450316;32;20427;-60
2022/06/08 15:15:50;;;;;;;5.75;3.95;;;;;;;;;;4449925;32;20578;-60
2022/06/08 15:18:16;;;;;;;9.10;3.37;;;;;;;;;;4451074;32;20362;-61
2022/06/08 15:20:42;;;;;;;10.27;4.50;;;;;;;;;;4450925;32;20295;-60
2022/06/08 15:23:08;;;;;;;6.97;3.97;;;;;;;;;;4449714;32;20249;-60